Time;durP1;ratioP1;P1;durP2;ratioP2;P2;SDS_P1;SDS_P2;PMS_P1;PMS_P2;Temp;Humidity;BMP_temperature;BMP_pressure;BME280_temperature;BME280_humidity;BME280_pressure;Samples;Min_cycle;Max_cycle;Signal;HPM_P1;HPM_P2
2022/01/12 00:00:51;;;;;;;3.47;3.17;;;;;;;;;;5037080;28;20025;-59
2022/01/12 00:03:17;;;;;;;4.00;3.60;;;;;;;;;;5039019;28;20099;-60
2022/01/12 00:05:43;;;;;;;3.45;2.97;;;;;;;;;;5039508;28;20132;-60
2022/01/12 00:08:09;;;;;;;4.28;3.88;;;;;;;;;;5038797;28;20028;-60
2022/01/12 00:10:34;;;;;;;3.65;3.35;;;;;;;;;;5037078;28;20077;-59
2022/01/12 00:13:00;;;;;;;3.55;3.25;;;;;;;;;;5038628;28;20092;-60
2022/01/12 00:15:25;;;;;;;3.47;3.17;;;;;;;;;;5036499;28;20348;-60
2022/01/12 00:17:50;;;;;;;4.35;3.35;;;;;;;;;;5040443;28;20094;-59
2022/01/12 00:20:16;;;;;;;3.20;2.90;;;;;;;;;;5038208;28;20028;-59
2022/01/12 00:22:42;;;;;;;3.33;3.03;;;;;;;;;;5037562;28;20040;-60
2022/01/12 00:25:24;;;;;;;3.95;3.50;;;;;;;;;;5041716;28;20101;-59
2022/01/12 00:33:28;;;;;;;3.55;2.90;;;;;;;;;;5036920;28;20539;-60
2022/01/12 00:35:57;;;;;;;3.85;3.47;;;;;;;;;;5037517;28;20116;-60
2022/01/12 00:38:25;;;;;;;3.33;3.03;;;;;;;;;;5039919;28;20044;-60
2022/01/12 00:40:53;;;;;;;3.63;3.28;;;;;;;;;;5038162;28;20036;-60
2022/01/12 00:43:21;;;;;;;4.50;3.75;;;;;;;;;;5039257;28;20060;-60
2022/01/12 00:45:47;;;;;;;4.15;3.75;;;;;;;;;;5037173;28;20068;-60
2022/01/12 00:48:14;;;;;;;4.57;4.18;;;;;;;;;;5040090;28;20044;-60
2022/01/12 00:50:40;;;;;;;3.85;3.50;;;;;;;;;;5039102;28;20088;-60
2022/01/12 00:53:05;;;;;;;3.70;3.30;;;;;;;;;;5037974;28;20029;-60
2022/01/12 00:55:32;;;;;;;4.20;3.15;;;;;;;;;;5038359;28;20421;-60
2022/01/12 00:57:58;;;;;;;3.50;3.20;;;;;;;;;;5039911;28;20059;-59
2022/01/12 01:00:25;;;;;;;3.88;3.40;;;;;;;;;;5039444;28;20029;-59
2022/01/12 01:02:51;;;;;;;3.60;3.30;;;;;;;;;;5038068;28;20036;-60
2022/01/12 01:05:20;;;;;;;3.38;3.08;;;;;;;;;;5036938;28;20025;-60
2022/01/12 01:07:46;;;;;;;5.80;3.63;;;;;;;;;;5036660;28;20037;-59
2022/01/12 01:10:17;;;;;;;3.30;3.00;;;;;;;;;;5038469;28;20074;-59
2022/01/12 01:12:45;;;;;;;3.75;3.15;;;;;;;;;;5037977;28;20041;-59
2022/01/12 01:15:13;;;;;;;3.83;3.45;;;;;;;;;;5038620;28;20029;-59
2022/01/12 01:25:43;;;;;;;3.15;2.85;;;;;;;;;;5039367;28;20439;-59
2022/01/12 01:28:10;;;;;;;3.92;3.47;;;;;;;;;;5038717;28;20090;-60
2022/01/12 01:30:38;;;;;;;3.47;3.10;;;;;;;;;;5036945;28;20043;-60
2022/01/12 01:33:07;;;;;;;3.10;2.72;;;;;;;;;;5038669;28;20033;-60
2022/01/12 01:35:36;;;;;;;3.67;3.38;;;;;;;;;;5037660;28;20037;-59
2022/01/12 01:38:03;;;;;;;3.47;2.90;;;;;;;;;;5038961;28;20366;-59
2022/01/12 01:40:30;;;;;;;4.38;3.33;;;;;;;;;;5038128;28;20025;-60
2022/01/12 01:53:44;;;;;;;3.88;3.47;;;;;;;;;;5038952;28;20371;-59
2022/01/12 01:56:10;;;;;;;3.40;3.10;;;;;;;;;;5038901;28;20091;-60
2022/01/12 01:58:35;;;;;;;3.10;2.75;;;;;;;;;;5036774;28;20060;-59
2022/01/12 02:01:01;;;;;;;3.83;3.20;;;;;;;;;;5037243;28;20017;-59
2022/01/12 02:03:29;;;;;;;4.25;3.05;;;;;;;;;;5038283;28;20029;-59
2022/01/12 02:05:55;;;;;;;3.50;3.20;;;;;;;;;;5041606;28;20044;-60
2022/01/12 02:08:21;;;;;;;3.72;3.42;;;;;;;;;;5038758;28;20037;-59
2022/01/12 02:10:46;;;;;;;3.38;3.08;;;;;;;;;;5038900;28;20036;-59
2022/01/12 02:13:11;;;;;;;7.00;3.25;;;;;;;;;;5034787;28;20029;-59
2022/01/12 02:15:39;;;;;;;3.35;3.05;;;;;;;;;;5037621;28;20336;-60
2022/01/12 02:18:30;;;;;;;4.13;3.72;;;;;;;;;;5038726;28;20060;-59
2022/01/12 02:35:21;;;;;;;4.65;3.75;;;;;;;;;;5040911;28;20382;-59
2022/01/12 02:40:24;;;;;;;3.22;2.92;;;;;;;;;;5040440;28;20378;-59
2022/01/12 02:43:05;;;;;;;3.45;3.15;;;;;;;;;;5038906;28;20591;-59
2022/01/12 02:51:27;;;;;;;3.47;3.17;;;;;;;;;;5040587;28;20056;-59
2022/01/12 02:53:52;;;;;;;3.50;3.20;;;;;;;;;;5042134;28;20025;-59
2022/01/12 02:56:23;;;;;;;3.85;3.50;;;;;;;;;;5043591;28;20091;-59
2022/01/12 02:58:51;;;;;;;3.50;3.20;;;;;;;;;;5041790;28;20025;-59
2022/01/12 03:01:54;;;;;;;3.63;3.15;;;;;;;;;;5042059;28;20044;-59
2022/01/12 03:04:16;;;;;;;3.70;3.05;;;;;;;;;;5038612;28;20098;-59
2022/01/12 03:06:43;;;;;;;3.72;3.40;;;;;;;;;;5042258;28;20041;-59
2022/01/12 03:09:10;;;;;;;3.20;2.90;;;;;;;;;;5041373;28;20021;-59
2022/01/12 03:11:36;;;;;;;3.72;3.33;;;;;;;;;;5040076;28;20068;-59
2022/01/12 03:14:02;;;;;;;4.15;3.30;;;;;;;;;;5043238;28;20054;-59
2022/01/12 03:16:28;;;;;;;3.50;3.20;;;;;;;;;;5041690;28;20100;-59
2022/01/12 03:18:59;;;;;;;5.35;4.25;;;;;;;;;;5041159;28;20116;-59
2022/01/12 03:21:31;;;;;;;3.78;3.45;;;;;;;;;;5041307;28;20043;-59
2022/01/12 03:23:57;;;;;;;3.25;2.95;;;;;;;;;;5040295;28;20043;-59
2022/01/12 03:26:24;;;;;;;4.13;3.72;;;;;;;;;;5042519;28;20362;-59
2022/01/12 03:28:53;;;;;;;4.40;4.00;;;;;;;;;;5039997;28;20403;-59
2022/01/12 03:31:22;;;;;;;3.20;2.90;;;;;;;;;;5041378;28;20398;-59
2022/01/12 03:33:54;;;;;;;4.38;3.97;;;;;;;;;;5039331;28;20060;-59
2022/01/12 03:36:26;;;;;;;3.80;3.38;;;;;;;;;;5042263;28;20474;-60
2022/01/12 03:38:57;;;;;;;4.47;3.85;;;;;;;;;;5040951;28;20127;-59
2022/01/12 03:41:23;;;;;;;;;;;;;;;;;;5038083;28;20037;-59
2022/01/12 03:43:49;;;;;;;3.97;3.60;;;;;;;;;;5040319;28;20532;-59
2022/01/12 03:46:17;;;;;;;3.88;3.33;;;;;;;;;;5041472;28;20029;-60
2022/01/12 03:48:42;;;;;;;3.75;3.28;;;;;;;;;;5038608;28;20057;-60
2022/01/12 03:51:08;;;;;;;3.10;2.80;;;;;;;;;;5038217;28;20071;-59
2022/01/12 03:53:34;;;;;;;4.32;3.38;;;;;;;;;;5039448;28;20033;-59
2022/01/12 03:55:59;;;;;;;3.30;3.00;;;;;;;;;;5037989;28;20059;-60
2022/01/12 03:58:24;;;;;;;3.35;2.70;;;;;;;;;;5038505;28;20094;-59
2022/01/12 04:00:50;;;;;;;3.10;2.70;;;;;;;;;;5041741;28;20052;-60
2022/01/12 04:03:16;;;;;;;4.18;3.35;;;;;;;;;;5040440;28;20355;-60
2022/01/12 04:08:20;;;;;;;3.67;3.22;;;;;;;;;;5039822;28;20025;-59
2022/01/12 04:10:51;;;;;;;6.05;3.25;;;;;;;;;;5037319;28;20037;-59
2022/01/12 04:13:18;;;;;;;3.63;3.25;;;;;;;;;;5038014;28;20037;-56
2022/01/12 04:15:47;;;;;;;3.58;3.28;;;;;;;;;;5035369;28;20463;-56
2022/01/12 04:18:12;;;;;;;3.88;3.22;;;;;;;;;;5040183;28;20025;-56
2022/01/12 04:20:45;;;;;;;3.55;3.22;;;;;;;;;;5038228;28;20025;-57
2022/01/12 04:23:16;;;;;;;3.33;3.03;;;;;;;;;;5040822;28;20106;-56
2022/01/12 04:25:42;;;;;;;4.30;3.38;;;;;;;;;;5040490;28;20033;-56
2022/01/12 04:28:07;;;;;;;3.28;2.92;;;;;;;;;;5038766;28;20029;-57
2022/01/12 04:30:32;;;;;;;3.42;3.13;;;;;;;;;;5038366;28;20048;-57
2022/01/12 04:32:58;;;;;;;2.92;2.53;;;;;;;;;;5037980;28;20040;-56
2022/01/12 04:35:29;;;;;;;5.60;3.38;;;;;;;;;;5037677;28;20037;-56
2022/01/12 04:37:54;;;;;;;2.92;2.63;;;;;;;;;;5042733;28;20502;-57
2022/01/12 04:40:20;;;;;;;3.83;2.92;;;;;;;;;;5039171;28;20032;-57
2022/01/12 04:42:45;;;;;;;3.30;2.90;;;;;;;;;;5038478;28;20029;-57
2022/01/12 04:48:32;;;;;;;4.00;3.60;;;;;;;;;;5033268;28;20071;-56
2022/01/12 04:50:56;;;;;;;3.10;2.80;;;;;;;;;;5041069;28;20041;-57
2022/01/12 04:53:22;;;;;;;3.72;3.40;;;;;;;;;;5038824;28;20029;-54
2022/01/12 04:55:50;;;;;;;4.18;3.00;;;;;;;;;;5040029;28;20048;-55
2022/01/12 04:58:17;;;;;;;3.65;2.97;;;;;;;;;;5039640;28;20041;-58
2022/01/12 05:00:44;;;;;;;3.97;3.25;;;;;;;;;;5040875;28;20064;-56
2022/01/12 05:08:52;;;;;;;3.40;2.92;;;;;;;;;;5036622;28;20032;-56
2022/01/12 05:14:02;;;;;;;3.20;2.85;;;;;;;;;;5038447;28;20033;-57
2022/01/12 05:16:27;;;;;;;3.08;2.75;;;;;;;;;;5039031;28;20638;-56
2022/01/12 05:18:54;;;;;;;3.83;3.30;;;;;;;;;;5038062;28;20033;-57
2022/01/12 05:21:22;;;;;;;5.93;3.15;;;;;;;;;;5038583;28;20029;-56
2022/01/12 05:23:48;;;;;;;3.40;3.00;;;;;;;;;;5038983;28;20032;-56
2022/01/12 05:26:14;;;;;;;3.65;2.88;;;;;;;;;;5037276;28;20021;-55
2022/01/12 05:28:39;;;;;;;4.28;2.95;;;;;;;;;;5039427;28;20577;-56
2022/01/12 05:31:07;;;;;;;4.03;3.42;;;;;;;;;;5040279;28;20112;-55
2022/01/12 05:33:33;;;;;;;3.30;2.80;;;;;;;;;;5037679;28;20103;-57
2022/01/12 05:36:01;;;;;;;3.70;3.40;;;;;;;;;;5038161;28;20025;-56
2022/01/12 05:38:27;;;;;;;3.25;2.95;;;;;;;;;;5038968;28;20037;-56
2022/01/12 05:40:55;;;;;;;3.30;2.90;;;;;;;;;;5039457;28;20013;-57
2022/01/12 05:43:26;;;;;;;3.53;3.22;;;;;;;;;;5037471;28;20060;-56
2022/01/12 05:45:53;;;;;;;3.80;3.45;;;;;;;;;;5035295;28;20487;-56
2022/01/12 05:50:48;;;;;;;3.08;2.72;;;;;;;;;;5039677;28;20080;-57
2022/01/12 05:53:14;;;;;;;5.30;4.00;;;;;;;;;;5039269;28;20044;-57
2022/01/12 05:55:40;;;;;;;3.30;3.00;;;;;;;;;;5040284;28;20045;-57
2022/01/12 05:58:05;;;;;;;4.43;3.17;;;;;;;;;;5038744;28;20037;-57
2022/01/12 06:00:30;;;;;;;3.30;2.85;;;;;;;;;;5039575;28;20478;-56
2022/01/12 06:02:56;;;;;;;4.25;3.25;;;;;;;;;;5041564;28;20033;-56
2022/01/12 06:05:23;;;;;;;3.72;3.42;;;;;;;;;;5042421;28;20051;-56
2022/01/12 06:07:50;;;;;;;3.70;3.33;;;;;;;;;;5041167;28;20049;-56
2022/01/12 06:10:17;;;;;;;2.92;2.63;;;;;;;;;;5040293;28;20068;-59
2022/01/12 06:12:44;;;;;;;4.55;3.17;;;;;;;;;;5038143;28;20078;-57
2022/01/12 06:15:10;;;;;;;3.10;2.80;;;;;;;;;;5041015;28;20040;-56
2022/01/12 06:17:35;;;;;;;4.18;3.33;;;;;;;;;;5039400;28;20548;-56
2022/01/12 06:20:03;;;;;;;4.65;3.80;;;;;;;;;;5042410;28;20029;-57
2022/01/12 06:22:28;;;;;;;3.58;3.05;;;;;;;;;;5045192;28;20451;-56
2022/01/12 06:24:55;;;;;;;4.50;3.65;;;;;;;;;;5044542;28;20024;-57
2022/01/12 06:27:22;;;;;;;4.22;3.03;;;;;;;;;;5042756;28;20411;-57
2022/01/12 06:30:03;;;;;;;3.50;3.10;;;;;;;;;;5041087;28;20071;-56
2022/01/12 06:32:31;;;;;;;;;;;;;;;;;;5043708;28;20041;-57
2022/01/12 06:34:57;;;;;;;3.53;3.22;;;;;;;;;;5041866;28;20364;-57
2022/01/12 06:37:23;;;;;;;3.53;3.10;;;;;;;;;;5039086;28;20041;-56
2022/01/12 06:39:49;;;;;;;3.88;3.28;;;;;;;;;;5042290;28;20029;-56
2022/01/12 06:42:14;;;;;;;3.53;3.13;;;;;;;;;;5044896;28;20112;-56
2022/01/12 06:44:40;;;;;;;5.50;3.10;;;;;;;;;;5037634;28;20439;-56
2022/01/12 06:47:06;;;;;;;8.30;3.58;;;;;;;;;;5041163;28;20112;-56
2022/01/12 06:49:31;;;;;;;3.50;3.20;;;;;;;;;;5036736;28;20049;-56
2022/01/12 06:52:00;;;;;;;3.33;3.03;;;;;;;;;;5036062;28;20048;-56
2022/01/12 06:54:26;;;;;;;3.67;3.28;;;;;;;;;;5040135;28;20625;-55
2022/01/12 06:56:51;;;;;;;4.22;3.63;;;;;;;;;;5036828;28;20095;-57
2022/01/12 06:59:17;;;;;;;4.63;3.75;;;;;;;;;;5038313;28;20025;-58
2022/01/12 07:01:42;;;;;;;4.43;2.95;;;;;;;;;;5038178;28;20454;-56
2022/01/12 07:04:07;;;;;;;4.07;3.67;;;;;;;;;;5039423;28;20037;-57
2022/01/12 07:06:34;;;;;;;5.28;4.15;;;;;;;;;;5038364;28;20037;-55
2022/01/12 07:09:00;;;;;;;3.35;2.80;;;;;;;;;;5038373;28;20450;-57
2022/01/12 07:11:25;;;;;;;3.75;3.28;;;;;;;;;;5035796;28;20042;-57
2022/01/12 07:13:50;;;;;;;2.92;2.63;;;;;;;;;;5038526;28;20112;-58
2022/01/12 07:16:16;;;;;;;3.88;3.22;;;;;;;;;;5036989;28;20128;-57
2022/01/12 07:18:41;;;;;;;3.63;3.20;;;;;;;;;;5038226;28;20049;-57
2022/01/12 07:21:06;;;;;;;6.00;5.40;;;;;;;;;;5037550;28;20033;-57
2022/01/12 07:23:32;;;;;;;5.38;4.25;;;;;;;;;;5038335;28;20518;-57
2022/01/12 07:25:57;;;;;;;6.03;3.88;;;;;;;;;;5037397;28;20104;-58
2022/01/12 07:28:23;;;;;;;7.07;4.95;;;;;;;;;;5035190;28;20425;-57
2022/01/12 07:30:50;;;;;;;5.35;4.85;;;;;;;;;;5039011;28;20127;-58
2022/01/12 07:33:16;;;;;;;8.00;7.35;;;;;;;;;;5037580;28;20112;-57
2022/01/12 07:35:42;;;;;;;4.95;3.70;;;;;;;;;;5035876;28;20490;-57
2022/01/12 07:38:08;;;;;;;3.95;3.55;;;;;;;;;;5037360;28;20432;-57
2022/01/12 07:40:35;;;;;;;6.57;3.80;;;;;;;;;;5037782;28;20029;-57
2022/01/12 07:43:03;;;;;;;5.55;3.58;;;;;;;;;;5035595;28;20048;-57
2022/01/12 07:45:28;;;;;;;4.93;4.00;;;;;;;;;;5036938;28;20123;-58
2022/01/12 07:47:54;;;;;;;5.18;3.47;;;;;;;;;;5040120;28;20170;-57
2022/01/12 07:50:19;;;;;;;4.05;3.40;;;;;;;;;;5034477;28;20088;-57
2022/01/12 07:52:45;;;;;;;4.55;3.78;;;;;;;;;;5036472;28;20041;-57
2022/01/12 07:55:10;;;;;;;5.15;4.25;;;;;;;;;;5036732;28;20117;-57
2022/01/12 07:57:35;;;;;;;4.38;3.55;;;;;;;;;;5036421;28;20036;-57
2022/01/12 08:00:02;;;;;;;4.03;3.60;;;;;;;;;;5038758;28;20108;-57
2022/01/12 08:02:27;;;;;;;4.82;4.32;;;;;;;;;;5036713;28;20029;-57
2022/01/12 08:04:53;;;;;;;5.47;4.13;;;;;;;;;;5037756;28;20090;-58
2022/01/12 08:07:18;;;;;;;7.57;4.95;;;;;;;;;;5037102;28;20044;-57
2022/01/12 08:09:43;;;;;;;4.13;3.45;;;;;;;;;;5035281;28;20041;-57
2022/01/12 08:12:10;;;;;;;13.57;3.80;;;;;;;;;;5035556;28;20471;-57
2022/01/12 08:14:36;;;;;;;4.32;3.90;;;;;;;;;;5038384;28;20032;-58
2022/01/12 08:17:02;;;;;;;7.40;4.85;;;;;;;;;;5037328;28;20033;-57
2022/01/12 08:19:28;;;;;;;5.38;4.28;;;;;;;;;;5033973;28;20471;-56
2022/01/12 08:21:54;;;;;;;3.90;3.50;;;;;;;;;;5035701;28;20037;-57
2022/01/12 08:24:20;;;;;;;3.72;3.30;;;;;;;;;;5036657;28;20040;-57
2022/01/12 08:26:46;;;;;;;3.90;3.33;;;;;;;;;;5034934;28;20037;-57
2022/01/12 08:29:15;;;;;;;8.05;3.70;;;;;;;;;;5035748;28;20631;-57
2022/01/12 08:31:44;;;;;;;6.35;4.00;;;;;;;;;;5035478;28;20037;-57
2022/01/12 08:34:10;;;;;;;4.30;3.53;;;;;;;;;;5037754;28;20120;-57
2022/01/12 08:36:41;;;;;;;3.28;2.97;;;;;;;;;;5035822;28;20076;-57
2022/01/12 08:39:08;;;;;;;5.03;4.07;;;;;;;;;;5037379;28;20029;-57
2022/01/12 08:41:35;;;;;;;4.53;4.10;;;;;;;;;;5036457;28;20035;-57
2022/01/12 08:44:00;;;;;;;4.25;3.22;;;;;;;;;;5035775;28;20668;-57
2022/01/12 08:46:26;;;;;;;3.80;3.50;;;;;;;;;;5034751;28;20040;-57
2022/01/12 08:48:52;;;;;;;4.03;3.63;;;;;;;;;;5037765;28;20028;-57
2022/01/12 08:51:17;;;;;;;4.55;3.53;;;;;;;;;;5031728;28;20048;-58
2022/01/12 08:53:42;;;;;;;3.92;3.58;;;;;;;;;;5035057;28;20128;-57
2022/01/12 08:56:08;;;;;;;3.45;3.13;;;;;;;;;;5038868;28;20059;-58
2022/01/12 08:58:33;;;;;;;3.85;3.05;;;;;;;;;;5035757;28;20037;-57
2022/01/12 09:01:03;;;;;;;3.45;3.03;;;;;;;;;;5033227;28;20052;-57
2022/01/12 09:03:29;;;;;;;4.38;3.53;;;;;;;;;;5036190;28;20037;-57
2022/01/12 09:05:54;;;;;;;3.78;3.38;;;;;;;;;;5034477;28;20091;-57
2022/01/12 09:08:19;;;;;;;8.10;4.63;;;;;;;;;;5035753;28;20423;-57
2022/01/12 09:10:45;;;;;;;4.43;3.97;;;;;;;;;;5036675;28;20073;-58
2022/01/12 09:13:10;;;;;;;3.95;3.08;;;;;;;;;;5036263;28;20032;-57
2022/01/12 09:15:36;;;;;;;3.85;3.45;;;;;;;;;;5039039;28;20187;-58
2022/01/12 09:18:01;;;;;;;4.07;3.53;;;;;;;;;;5033448;28;20036;-57
2022/01/12 09:20:28;;;;;;;8.82;4.13;;;;;;;;;;5034885;28;20029;-57
2022/01/12 09:22:54;;;;;;;4.40;3.10;;;;;;;;;;5036623;28;20029;-56
2022/01/12 09:25:20;;;;;;;3.70;3.08;;;;;;;;;;5035195;28;20045;-57
2022/01/12 09:27:46;;;;;;;4.40;3.90;;;;;;;;;;5035478;28;20095;-57
2022/01/12 09:30:15;;;;;;;4.00;3.60;;;;;;;;;;5033023;28;20033;-56
2022/01/12 09:32:41;;;;;;;3.55;3.25;;;;;;;;;;5034958;28;20033;-57
2022/01/12 09:35:07;;;;;;;3.67;3.35;;;;;;;;;;5038334;28;20029;-57
2022/01/12 09:37:33;;;;;;;5.05;4.50;;;;;;;;;;5038783;28;20374;-56
2022/01/12 09:39:58;;;;;;;7.32;4.72;;;;;;;;;;5038748;28;20029;-57
2022/01/12 09:42:23;;;;;;;3.70;3.33;;;;;;;;;;5036806;28;20755;-57
2022/01/12 09:44:49;;;;;;;3.65;3.35;;;;;;;;;;5039035;28;20107;-57
2022/01/12 09:47:16;;;;;;;4.35;3.95;;;;;;;;;;5037903;28;20037;-56
2022/01/12 09:49:43;;;;;;;5.72;3.92;;;;;;;;;;5037995;28;20324;-57
2022/01/12 09:52:09;;;;;;;11.02;3.92;;;;;;;;;;5036426;28;20561;-56
2022/01/12 09:54:36;;;;;;;4.53;4.13;;;;;;;;;;5038818;28;20051;-56
2022/01/12 09:57:02;;;;;;;3.83;3.45;;;;;;;;;;5039637;28;20037;-57
2022/01/12 09:59:27;;;;;;;4.25;3.85;;;;;;;;;;5039000;28;20059;-56
2022/01/12 10:01:54;;;;;;;6.40;4.75;;;;;;;;;;5037120;28;20033;-57
2022/01/12 10:04:31;;;;;;;5.03;4.53;;;;;;;;;;5039920;28;20025;-57
2022/01/12 10:07:01;;;;;;;4.32;3.92;;;;;;;;;;5038353;28;20040;-56
2022/01/12 10:09:34;;;;;;;4.93;4.43;;;;;;;;;;5041790;28;20034;-56
2022/01/12 10:12:05;;;;;;;5.40;4.85;;;;;;;;;;5038557;28;20037;-56
2022/01/12 10:14:42;;;;;;;;;;;;;;;;;;5038022;28;20159;-56
2022/01/12 10:17:08;;;;;;;5.35;4.85;;;;;;;;;;5035661;28;19935;-56
2022/01/12 10:19:34;;;;;;;5.20;4.70;;;;;;;;;;5035250;28;21285;-57
2022/01/12 10:22:02;;;;;;;4.65;4.25;;;;;;;;;;5038334;28;20108;-57
2022/01/12 10:24:28;;;;;;;4.78;4.30;;;;;;;;;;5041685;28;20102;-56
2022/01/12 10:26:55;;;;;;;5.18;4.70;;;;;;;;;;5039857;28;20044;-56
2022/01/12 10:29:27;;;;;;;5.28;4.78;;;;;;;;;;5039348;28;20029;-56
2022/01/12 10:32:03;;;;;;;5.28;4.80;;;;;;;;;;5039463;28;20115;-56
2022/01/12 10:34:42;;;;;;;6.72;4.95;;;;;;;;;;5041135;28;20455;-56
2022/01/12 10:37:10;;;;;;;4.60;4.20;;;;;;;;;;5039761;28;20467;-57
2022/01/12 10:39:45;;;;;;;4.63;4.20;;;;;;;;;;5033466;28;20130;-57
2022/01/12 10:42:17;;;;;;;5.18;4.78;;;;;;;;;;5041126;28;20030;-57
2022/01/12 10:44:46;;;;;;;4.68;4.28;;;;;;;;;;5036296;28;20379;-57
2022/01/12 10:47:20;;;;;;;5.32;4.70;;;;;;;;;;5038223;28;20036;-57
2022/01/12 10:50:04;;;;;;;6.68;4.97;;;;;;;;;;5037106;28;20040;-57
2022/01/12 10:52:39;;;;;;;4.93;4.53;;;;;;;;;;5036711;28;20108;-57
2022/01/12 10:55:10;;;;;;;5.10;4.57;;;;;;;;;;5035955;28;20889;-61
2022/01/12 10:57:38;;;;;;;5.07;4.32;;;;;;;;;;5035483;28;20829;-57
2022/01/12 11:00:09;;;;;;;5.10;4.13;;;;;;;;;;5037689;28;20025;-57
2022/01/12 11:02:37;;;;;;;4.72;4.18;;;;;;;;;;5036510;28;20413;-57
2022/01/12 11:05:04;;;;;;;4.90;4.40;;;;;;;;;;5040568;28;20412;-55
2022/01/12 11:07:30;;;;;;;6.65;4.88;;;;;;;;;;5038960;28;20498;-57
2022/01/12 11:10:01;;;;;;;6.78;4.85;;;;;;;;;;5039378;28;20045;-57
2022/01/12 11:12:27;;;;;;;5.45;4.95;;;;;;;;;;5039832;28;20058;-57
2022/01/12 11:14:53;;;;;;;5.55;5.05;;;;;;;;;;5041761;28;20037;-56
2022/01/12 11:17:19;;;;;;;5.72;4.90;;;;;;;;;;5041095;28;20029;-57
2022/01/12 11:19:57;;;;;;;4.20;3.80;;;;;;;;;;5040770;28;20021;-56
2022/01/12 11:22:40;;;;;;;4.95;3.97;;;;;;;;;;5039462;28;20061;-57
2022/01/12 11:25:42;;;;;;;4.53;4.13;;;;;;;;;;5040792;28;20124;-57
2022/01/12 11:28:09;;;;;;;4.13;3.83;;;;;;;;;;5037228;28;20033;-57
2022/01/12 11:30:36;;;;;;;4.20;3.85;;;;;;;;;;5040663;28;20038;-57
2022/01/12 11:33:04;;;;;;;4.45;4.05;;;;;;;;;;5041152;28;20446;-57
2022/01/12 11:35:33;;;;;;;4.80;4.40;;;;;;;;;;5040641;28;20051;-57
2022/01/12 11:38:00;;;;;;;4.65;4.25;;;;;;;;;;5037390;28;20025;-57
2022/01/12 11:40:42;;;;;;;3.90;3.60;;;;;;;;;;5041145;28;20039;-57
2022/01/12 11:43:21;;;;;;;3.92;3.63;;;;;;;;;;5037831;28;20115;-57
2022/01/12 11:45:59;;;;;;;5.28;4.28;;;;;;;;;;5040412;28;20120;-57
2022/01/12 11:48:29;;;;;;;4.03;3.63;;;;;;;;;;5040638;28;20060;-57
2022/01/12 11:50:55;;;;;;;4.82;4.43;;;;;;;;;;5041789;28;20041;-57
2022/01/12 11:53:21;;;;;;;4.32;3.92;;;;;;;;;;5040395;28;20037;-57
2022/01/12 11:55:46;;;;;;;16.85;7.43;;;;;;;;;;5039737;28;20042;-57
2022/01/12 11:58:18;;;;;;;4.57;3.92;;;;;;;;;;5039954;28;20033;-57
2022/01/12 12:00:44;;;;;;;4.40;4.00;;;;;;;;;;5037929;28;20021;-57
2022/01/12 12:03:15;;;;;;;4.53;4.13;;;;;;;;;;5040158;28;20364;-57
2022/01/12 12:05:41;;;;;;;4.45;4.05;;;;;;;;;;5038469;28;20076;-57
2022/01/12 12:08:07;;;;;;;4.43;4.03;;;;;;;;;;5038409;28;20064;-57
2022/01/12 12:10:34;;;;;;;4.38;3.97;;;;;;;;;;5039063;28;20055;-57
2022/01/12 12:13:00;;;;;;;6.53;5.20;;;;;;;;;;5040729;28;20040;-56
2022/01/12 12:15:27;;;;;;;12.27;7.57;;;;;;;;;;5035704;28;20049;-57
2022/01/12 12:17:54;;;;;;;4.82;4.43;;;;;;;;;;5040529;28;20036;-58
2022/01/12 12:20:23;;;;;;;4.63;4.22;;;;;;;;;;5037515;28;20037;-57
2022/01/12 12:22:49;;;;;;;4.53;4.13;;;;;;;;;;5042249;28;20036;-57
2022/01/12 12:25:24;;;;;;;4.65;4.18;;;;;;;;;;5040377;28;20467;-58
2022/01/12 12:27:54;;;;;;;8.55;4.28;;;;;;;;;;5039822;28;20120;-58
2022/01/12 12:30:22;;;;;;;5.65;4.57;;;;;;;;;;5039409;28;20091;-58
2022/01/12 12:32:56;;;;;;;5.05;4.57;;;;;;;;;;5037493;28;20061;-57
2022/01/12 12:35:23;;;;;;;4.80;4.25;;;;;;;;;;5039999;28;20045;-58
2022/01/12 12:38:16;;;;;;;4.70;4.28;;;;;;;;;;5039155;28;20482;-58
2022/01/12 12:40:48;;;;;;;3.92;3.63;;;;;;;;;;5037763;28;20132;-58
2022/01/12 12:43:23;;;;;;;4.55;4.15;;;;;;;;;;5040984;28;20112;-58
2022/01/12 12:45:49;;;;;;;4.13;3.72;;;;;;;;;;5038600;28;20114;-57
2022/01/12 12:48:19;;;;;;;5.80;5.30;;;;;;;;;;5035733;28;20044;-57
2022/01/12 12:50:46;;;;;;;5.07;4.67;;;;;;;;;;5038854;28;20541;-57
2022/01/12 12:53:12;;;;;;;5.65;5.10;;;;;;;;;;5038132;28;20029;-57
2022/01/12 12:55:43;;;;;;;4.63;4.22;;;;;;;;;;5038598;28;20033;-57
2022/01/12 12:58:09;;;;;;;4.10;3.70;;;;;;;;;;5040315;28;20043;-58
2022/01/12 13:00:37;;;;;;;6.63;4.55;;;;;;;;;;5035170;28;20463;-58
2022/01/12 13:03:04;;;;;;;5.40;4.75;;;;;;;;;;5040018;28;20033;-57
2022/01/12 13:05:33;;;;;;;4.70;4.28;;;;;;;;;;5039487;28;20075;-57
2022/01/12 13:08:00;;;;;;;4.50;4.10;;;;;;;;;;5037331;28;20094;-58
2022/01/12 13:10:30;;;;;;;5.15;4.53;;;;;;;;;;5034748;28;20397;-58
2022/01/12 13:13:08;;;;;;;7.00;4.93;;;;;;;;;;5037436;28;20116;-57
2022/01/12 13:15:36;;;;;;;4.70;4.20;;;;;;;;;;5036360;28;20454;-58
2022/01/12 13:18:19;;;;;;;4.30;3.90;;;;;;;;;;5036191;28;20065;-57
2022/01/12 13:23:41;;;;;;;5.75;5.18;;;;;;;;;;5037107;28;20063;-58
2022/01/12 13:26:09;;;;;;;5.65;5.07;;;;;;;;;;5038518;28;20049;-58
2022/01/12 13:28:39;;;;;;;5.35;4.80;;;;;;;;;;5038682;28;20034;-58
2022/01/12 13:31:07;;;;;;;5.30;4.63;;;;;;;;;;5037401;28;20896;-58
2022/01/12 13:33:48;;;;;;;4.78;4.38;;;;;;;;;;5038719;28;20555;-58
2022/01/12 13:36:20;;;;;;;4.70;4.18;;;;;;;;;;5038039;28;20029;-58
2022/01/12 13:38:48;;;;;;;5.30;4.78;;;;;;;;;;5039284;28;20269;-57
2022/01/12 13:41:16;;;;;;;5.43;4.93;;;;;;;;;;5039251;28;20052;-58
2022/01/12 13:43:47;;;;;;;5.45;4.95;;;;;;;;;;5037483;28;20116;-58
2022/01/12 13:46:14;;;;;;;5.47;4.97;;;;;;;;;;5036004;28;20033;-57
2022/01/12 13:48:53;;;;;;;5.75;4.88;;;;;;;;;;5037727;28;20426;-58
2022/01/12 13:51:26;;;;;;;4.63;4.22;;;;;;;;;;5038371;28;20451;-58
2022/01/12 13:54:03;;;;;;;6.38;4.85;;;;;;;;;;5037434;28;20037;-58
2022/01/12 13:56:42;;;;;;;6.63;4.35;;;;;;;;;;5037059;28;20054;-58
2022/01/12 13:59:08;;;;;;;5.20;4.70;;;;;;;;;;5038493;28;20039;-58
2022/01/12 14:01:36;;;;;;;4.78;4.38;;;;;;;;;;5038987;28;20088;-58
2022/01/12 14:04:19;;;;;;;6.78;4.88;;;;;;;;;;5037533;28;20033;-58
2022/01/12 14:06:47;;;;;;;4.85;4.45;;;;;;;;;;5038750;28;20044;-58
2022/01/12 14:09:31;;;;;;;4.72;4.22;;;;;;;;;;5038418;28;20514;-57
2022/01/12 14:12:06;;;;;;;5.07;4.65;;;;;;;;;;5040213;28;20111;-58
2022/01/12 14:14:31;;;;;;;5.75;4.65;;;;;;;;;;5038868;28;20904;-58
2022/01/12 14:16:57;;;;;;;4.68;4.28;;;;;;;;;;5037672;28;20136;-58
2022/01/12 14:19:22;;;;;;;5.07;4.60;;;;;;;;;;5037765;28;20029;-57
2022/01/12 14:21:57;;;;;;;4.55;4.15;;;;;;;;;;5041686;28;20072;-58
2022/01/12 14:24:23;;;;;;;4.38;3.97;;;;;;;;;;5037824;28;20478;-58
2022/01/12 14:26:48;;;;;;;5.63;5.05;;;;;;;;;;5042843;28;20029;-58
2022/01/12 14:29:14;;;;;;;4.53;4.05;;;;;;;;;;5041478;28;20036;-57
2022/01/12 14:31:42;;;;;;;6.57;5.22;;;;;;;;;;5041667;28;20521;-58
2022/01/12 14:34:07;;;;;;;4.38;3.97;;;;;;;;;;5040562;28;20459;-58
2022/01/12 14:36:33;;;;;;;4.32;3.92;;;;;;;;;;5041505;28;20037;-58
2022/01/12 14:38:59;;;;;;;4.53;4.13;;;;;;;;;;5040674;28;20021;-58
2022/01/12 14:41:24;;;;;;;5.90;4.32;;;;;;;;;;5042436;28;20164;-57
2022/01/12 14:43:50;;;;;;;4.10;3.70;;;;;;;;;;5042598;28;20483;-58
2022/01/12 14:46:20;;;;;;;4.65;4.13;;;;;;;;;;5042651;28;20079;-57
2022/01/12 14:48:46;;;;;;;5.10;4.20;;;;;;;;;;5042218;28;20037;-58
2022/01/12 14:51:11;;;;;;;3.95;3.55;;;;;;;;;;5039521;28;20427;-58
2022/01/12 14:53:37;;;;;;;4.43;4.03;;;;;;;;;;5040795;28;20037;-57
2022/01/12 14:56:05;;;;;;;4.07;3.67;;;;;;;;;;5043741;28;20024;-58
2022/01/12 14:58:31;;;;;;;4.13;3.72;;;;;;;;;;5038630;28;20034;-57
2022/01/12 15:00:57;;;;;;;4.85;4.22;;;;;;;;;;5039863;28;20095;-57
2022/01/12 15:03:23;;;;;;;4.05;3.25;;;;;;;;;;5041393;28;20037;-57
2022/01/12 15:05:50;;;;;;;4.45;3.88;;;;;;;;;;5040466;28;20044;-57
2022/01/12 15:08:18;;;;;;;4.15;3.78;;;;;;;;;;5039909;28;20155;-57
2022/01/12 15:10:44;;;;;;;4.93;4.53;;;;;;;;;;5039274;28;20026;-57
2022/01/12 15:13:55;;;;;;;4.35;3.72;;;;;;;;;;5040797;28;20118;-57
2022/01/12 15:16:04;;;;;;;5.43;4.93;;;;;;;;;;5036941;28;20048;-57
2022/01/12 15:18:30;;;;;;;4.65;4.15;;;;;;;;;;5041850;28;20036;-58
2022/01/12 15:20:55;;;;;;;4.43;3.47;;;;;;;;;;5041203;28;20038;-59
2022/01/12 15:23:21;;;;;;;4.25;3.63;;;;;;;;;;5041535;28;20170;-60
2022/01/12 15:25:47;;;;;;;4.03;3.65;;;;;;;;;;5042219;28;20037;-60
2022/01/12 15:28:13;;;;;;;4.63;4.20;;;;;;;;;;5042136;28;20086;-60
2022/01/12 15:30:42;;;;;;;4.10;3.47;;;;;;;;;;5040504;28;20030;-61
2022/01/12 15:33:09;;;;;;;4.55;4.15;;;;;;;;;;5036830;28;20052;-61
2022/01/12 15:35:38;;;;;;;4.18;3.75;;;;;;;;;;5039154;28;20052;-60
2022/01/12 15:38:08;;;;;;;5.28;4.78;;;;;;;;;;5037491;28;20054;-60
2022/01/12 15:40:35;;;;;;;4.80;4.30;;;;;;;;;;5040831;28;20047;-60
2022/01/12 15:43:00;;;;;;;4.70;4.15;;;;;;;;;;5041787;28;20049;-60
2022/01/12 15:45:26;;;;;;;5.82;4.47;;;;;;;;;;5040204;28;20478;-59
2022/01/12 15:47:52;;;;;;;4.93;4.45;;;;;;;;;;5041070;28;20033;-59
2022/01/12 15:50:18;;;;;;;4.78;4.22;;;;;;;;;;5038466;28;20390;-60
2022/01/12 15:52:43;;;;;;;14.60;4.65;;;;;;;;;;5041059;28;20065;-59
2022/01/12 15:55:09;;;;;;;5.95;4.63;;;;;;;;;;5040143;28;20059;-59